sensor_id;sensor_type;location;lat;lon;timestamp;P1;durP1;ratioP1;P2;durP2;ratioP2
27889;SDS011;15238;49.082;9.102;2024-03-02T00:01:55;22.42;;;14.27;;
27889;SDS011;15238;49.082;9.102;2024-03-02T00:03:56;21.92;;;13.70;;
27889;SDS011;15238;49.082;9.102;2024-03-02T00:05:56;20.50;;;13.00;;
27889;SDS011;15238;49.082;9.102;2024-03-02T00:07:57;19.98;;;12.38;;
27889;SDS011;15238;49.082;9.102;2024-03-02T00:09:58;22.50;;;12.70;;
27889;SDS011;15238;49.082;9.102;2024-03-02T00:12:00;23.58;;;13.43;;
27889;SDS011;15238;49.082;9.102;2024-03-02T00:14:00;19.50;;;12.93;;
27889;SDS011;15238;49.082;9.102;2024-03-02T00:16:01;22.35;;;12.98;;
27889;SDS011;15238;49.082;9.102;2024-03-02T00:18:04;23.63;;;13.07;;
27889;SDS011;15238;49.082;9.102;2024-03-02T00:20:05;19.38;;;13.35;;
27889;SDS011;15238;49.082;9.102;2024-03-02T00:22:09;20.65;;;12.63;;
27889;SDS011;15238;49.082;9.102;2024-03-02T00:26:46;22.10;;;12.10;;
27889;SDS011;15238;49.082;9.102;2024-03-02T00:28:47;18.70;;;12.00;;
27889;SDS011;15238;49.082;9.102;2024-03-02T00:30:57;19.15;;;12.25;;
27889;SDS011;15238;49.082;9.102;2024-03-02T00:33:07;18.20;;;11.63;;
27889;SDS011;15238;49.082;9.102;2024-03-02T00:35:08;16.30;;;11.60;;
27889;SDS011;15238;49.082;9.102;2024-03-02T00:37:10;18.30;;;13.20;;
27889;SDS011;15238;49.082;9.102;2024-03-02T00:39:12;18.00;;;12.90;;
27889;SDS011;15238;49.082;9.102;2024-03-02T00:41:24;19.67;;;11.88;;
27889;SDS011;15238;49.082;9.102;2024-03-02T00:45:57;20.17;;;13.05;;
27889;SDS011;15238;49.082;9.102;2024-03-02T00:47:57;19.50;;;12.45;;
27889;SDS011;15238;49.082;9.102;2024-03-02T00:49:58;17.00;;;12.00;;
27889;SDS011;15238;49.082;9.102;2024-03-02T00:51:58;17.42;;;11.40;;
27889;SDS011;15238;49.082;9.102;2024-03-02T00:54:00;17.60;;;12.10;;
27889;SDS011;15238;49.082;9.102;2024-03-02T00:56:03;18.27;;;12.38;;
27889;SDS011;15238;49.082;9.102;2024-03-02T00:58:10;19.67;;;12.23;;
27889;SDS011;15238;49.082;9.102;2024-03-02T01:00:11;17.25;;;12.48;;
27889;SDS011;15238;49.082;9.102;2024-03-02T01:02:15;18.17;;;12.32;;
27889;SDS011;15238;49.082;9.102;2024-03-02T01:04:15;20.25;;;11.93;;
27889;SDS011;15238;49.082;9.102;2024-03-02T01:06:16;17.08;;;11.60;;
27889;SDS011;15238;49.082;9.102;2024-03-02T01:08:17;24.38;;;15.18;;
27889;SDS011;15238;49.082;9.102;2024-03-02T01:10:17;18.45;;;12.00;;
27889;SDS011;15238;49.082;9.102;2024-03-02T01:12:18;16.73;;;11.70;;
27889;SDS011;15238;49.082;9.102;2024-03-02T01:14:18;18.20;;;11.55;;
27889;SDS011;15238;49.082;9.102;2024-03-02T01:16:19;15.40;;;10.80;;
27889;SDS011;15238;49.082;9.102;2024-03-02T01:18:19;15.70;;;10.85;;
27889;SDS011;15238;49.082;9.102;2024-03-02T01:20:20;18.55;;;11.05;;
27889;SDS011;15238;49.082;9.102;2024-03-02T01:22:22;20.63;;;10.45;;
27889;SDS011;15238;49.082;9.102;2024-03-02T01:24:25;17.50;;;12.07;;
27889;SDS011;15238;49.082;9.102;2024-03-02T01:26:25;17.75;;;11.77;;
27889;SDS011;15238;49.082;9.102;2024-03-02T01:28:26;14.75;;;10.50;;
27889;SDS011;15238;49.082;9.102;2024-03-02T01:30:26;18.63;;;11.25;;
27889;SDS011;15238;49.082;9.102;2024-03-02T01:32:27;18.40;;;11.73;;
27889;SDS011;15238;49.082;9.102;2024-03-02T01:34:27;16.33;;;11.18;;
27889;SDS011;15238;49.082;9.102;2024-03-02T01:36:28;16.33;;;11.40;;
27889;SDS011;15238;49.082;9.102;2024-03-02T01:38:28;19.83;;;11.68;;
27889;SDS011;15238;49.082;9.102;2024-03-02T01:40:29;17.70;;;11.27;;
27889;SDS011;15238;49.082;9.102;2024-03-02T01:42:29;16.25;;;10.93;;
27889;SDS011;15238;49.082;9.102;2024-03-02T01:44:30;16.30;;;10.93;;
27889;SDS011;15238;49.082;9.102;2024-03-02T01:46:31;19.05;;;11.45;;
27889;SDS011;15238;49.082;9.102;2024-03-02T01:48:31;20.75;;;11.82;;
27889;SDS011;15238;49.082;9.102;2024-03-02T01:50:32;17.13;;;11.57;;
27889;SDS011;15238;49.082;9.102;2024-03-02T01:52:33;16.77;;;11.50;;
27889;SDS011;15238;49.082;9.102;2024-03-02T01:54:34;17.80;;;12.23;;
27889;SDS011;15238;49.082;9.102;2024-03-02T01:56:34;17.73;;;11.45;;
27889;SDS011;15238;49.082;9.102;2024-03-02T01:58:35;21.83;;;13.55;;
27889;SDS011;15238;49.082;9.102;2024-03-02T02:00:36;27.27;;;15.10;;
27889;SDS011;15238;49.082;9.102;2024-03-02T02:02:37;19.65;;;12.10;;
27889;SDS011;15238;49.082;9.102;2024-03-02T02:04:37;21.27;;;11.93;;
27889;SDS011;15238;49.082;9.102;2024-03-02T02:06:38;17.40;;;11.15;;
27889;SDS011;15238;49.082;9.102;2024-03-02T02:08:38;20.58;;;11.35;;
27889;SDS011;15238;49.082;9.102;2024-03-02T02:10:39;17.55;;;11.52;;
27889;SDS011;15238;49.082;9.102;2024-03-02T02:12:40;17.52;;;11.13;;
27889;SDS011;15238;49.082;9.102;2024-03-02T02:14:46;16.75;;;10.88;;
27889;SDS011;15238;49.082;9.102;2024-03-02T02:16:49;15.85;;;10.20;;
27889;SDS011;15238;49.082;9.102;2024-03-02T02:18:49;15.75;;;10.77;;
27889;SDS011;15238;49.082;9.102;2024-03-02T02:20:50;18.08;;;10.57;;
27889;SDS011;15238;49.082;9.102;2024-03-02T02:23:00;19.77;;;11.27;;
27889;SDS011;15238;49.082;9.102;2024-03-02T02:25:02;15.55;;;10.73;;
27889;SDS011;15238;49.082;9.102;2024-03-02T02:27:02;17.05;;;10.75;;
27889;SDS011;15238;49.082;9.102;2024-03-02T02:29:03;17.75;;;10.68;;
27889;SDS011;15238;49.082;9.102;2024-03-02T02:31:03;16.20;;;10.82;;
27889;SDS011;15238;49.082;9.102;2024-03-02T02:33:04;19.42;;;10.80;;
27889;SDS011;15238;49.082;9.102;2024-03-02T02:35:04;16.55;;;10.88;;
27889;SDS011;15238;49.082;9.102;2024-03-02T02:37:05;20.38;;;10.63;;
27889;SDS011;15238;49.082;9.102;2024-03-02T02:39:06;17.92;;;11.23;;
27889;SDS011;15238;49.082;9.102;2024-03-02T02:41:10;15.63;;;10.00;;
27889;SDS011;15238;49.082;9.102;2024-03-02T02:43:11;14.48;;;9.45;;
27889;SDS011;15238;49.082;9.102;2024-03-02T02:45:11;17.65;;;11.15;;
27889;SDS011;15238;49.082;9.102;2024-03-02T02:47:14;15.35;;;10.73;;
27889;SDS011;15238;49.082;9.102;2024-03-02T02:49:14;17.30;;;11.48;;
27889;SDS011;15238;49.082;9.102;2024-03-02T02:51:15;18.52;;;11.30;;
27889;SDS011;15238;49.082;9.102;2024-03-02T02:53:16;17.65;;;11.77;;
27889;SDS011;15238;49.082;9.102;2024-03-02T02:55:17;17.60;;;11.13;;
27889;SDS011;15238;49.082;9.102;2024-03-02T02:57:17;17.15;;;10.98;;
27889;SDS011;15238;49.082;9.102;2024-03-02T02:59:18;17.77;;;10.98;;
27889;SDS011;15238;49.082;9.102;2024-03-02T03:01:18;19.05;;;10.70;;
27889;SDS011;15238;49.082;9.102;2024-03-02T03:03:19;16.85;;;11.23;;
27889;SDS011;15238;49.082;9.102;2024-03-02T03:05:19;21.42;;;11.68;;
27889;SDS011;15238;49.082;9.102;2024-03-02T03:07:20;21.80;;;11.18;;
27889;SDS011;15238;49.082;9.102;2024-03-02T03:09:20;19.02;;;12.00;;
27889;SDS011;15238;49.082;9.102;2024-03-02T03:11:21;18.95;;;11.45;;
27889;SDS011;15238;49.082;9.102;2024-03-02T03:13:22;18.10;;;10.80;;
27889;SDS011;15238;49.082;9.102;2024-03-02T03:15:23;17.60;;;11.00;;
27889;SDS011;15238;49.082;9.102;2024-03-02T03:17:23;16.77;;;10.98;;
27889;SDS011;15238;49.082;9.102;2024-03-02T03:19:24;16.75;;;11.38;;
27889;SDS011;15238;49.082;9.102;2024-03-02T03:21:24;18.40;;;11.88;;
27889;SDS011;15238;49.082;9.102;2024-03-02T03:23:25;16.38;;;11.07;;
27889;SDS011;15238;49.082;9.102;2024-03-02T03:25:25;17.08;;;11.40;;
27889;SDS011;15238;49.082;9.102;2024-03-02T03:27:26;16.38;;;10.50;;
27889;SDS011;15238;49.082;9.102;2024-03-02T03:29:27;17.95;;;10.82;;
27889;SDS011;15238;49.082;9.102;2024-03-02T03:31:27;15.73;;;10.32;;
27889;SDS011;15238;49.082;9.102;2024-03-02T03:33:28;17.05;;;10.80;;
27889;SDS011;15238;49.082;9.102;2024-03-02T03:35:29;15.95;;;10.55;;
27889;SDS011;15238;49.082;9.102;2024-03-02T03:37:29;15.80;;;10.20;;
27889;SDS011;15238;49.082;9.102;2024-03-02T03:39:33;17.42;;;9.85;;
27889;SDS011;15238;49.082;9.102;2024-03-02T03:41:35;14.85;;;10.32;;
27889;SDS011;15238;49.082;9.102;2024-03-02T03:43:36;23.10;;;11.50;;
27889;SDS011;15238;49.082;9.102;2024-03-02T03:45:36;19.05;;;11.73;;
27889;SDS011;15238;49.082;9.102;2024-03-02T03:47:37;17.65;;;10.70;;
27889;SDS011;15238;49.082;9.102;2024-03-02T03:49:37;17.23;;;10.40;;
27889;SDS011;15238;49.082;9.102;2024-03-02T03:51:38;17.65;;;11.32;;
27889;SDS011;15238;49.082;9.102;2024-03-02T03:53:38;20.65;;;11.93;;
27889;SDS011;15238;49.082;9.102;2024-03-02T03:55:39;17.02;;;11.50;;
27889;SDS011;15238;49.082;9.102;2024-03-02T03:57:39;22.65;;;12.27;;
27889;SDS011;15238;49.082;9.102;2024-03-02T03:59:40;23.67;;;12.63;;
27889;SDS011;15238;49.082;9.102;2024-03-02T04:01:40;20.98;;;12.88;;
27889;SDS011;15238;49.082;9.102;2024-03-02T04:03:41;18.65;;;12.05;;
27889;SDS011;15238;49.082;9.102;2024-03-02T04:05:41;18.92;;;11.85;;
27889;SDS011;15238;49.082;9.102;2024-03-02T04:07:42;19.63;;;12.60;;
27889;SDS011;15238;49.082;9.102;2024-03-02T04:09:43;21.15;;;12.85;;
27889;SDS011;15238;49.082;9.102;2024-03-02T04:11:43;19.63;;;12.75;;
27889;SDS011;15238;49.082;9.102;2024-03-02T04:13:43;20.83;;;12.38;;
27889;SDS011;15238;49.082;9.102;2024-03-02T04:15:44;20.42;;;13.57;;
27889;SDS011;15238;49.082;9.102;2024-03-02T04:17:44;19.15;;;12.15;;
27889;SDS011;15238;49.082;9.102;2024-03-02T04:19:45;20.13;;;12.15;;
27889;SDS011;15238;49.082;9.102;2024-03-02T04:21:45;18.63;;;11.23;;
27889;SDS011;15238;49.082;9.102;2024-03-02T04:23:46;20.98;;;12.32;;
27889;SDS011;15238;49.082;9.102;2024-03-02T04:25:46;19.02;;;12.05;;
27889;SDS011;15238;49.082;9.102;2024-03-02T04:27:47;19.52;;;12.27;;
27889;SDS011;15238;49.082;9.102;2024-03-02T04:29:47;19.13;;;12.00;;
27889;SDS011;15238;49.082;9.102;2024-03-02T04:31:48;21.90;;;12.55;;
27889;SDS011;15238;49.082;9.102;2024-03-02T04:33:49;21.80;;;12.52;;
27889;SDS011;15238;49.082;9.102;2024-03-02T04:35:49;34.72;;;18.08;;
27889;SDS011;15238;49.082;9.102;2024-03-02T04:37:49;22.98;;;13.18;;
27889;SDS011;15238;49.082;9.102;2024-03-02T04:39:50;20.20;;;12.85;;
27889;SDS011;15238;49.082;9.102;2024-03-02T04:41:50;24.88;;;13.40;;
27889;SDS011;15238;49.082;9.102;2024-03-02T04:43:51;22.42;;;13.75;;
27889;SDS011;15238;49.082;9.102;2024-03-02T04:45:51;22.63;;;13.50;;
27889;SDS011;15238;49.082;9.102;2024-03-02T04:47:52;20.02;;;12.95;;
27889;SDS011;15238;49.082;9.102;2024-03-02T04:49:53;21.13;;;13.05;;
27889;SDS011;15238;49.082;9.102;2024-03-02T04:51:53;19.08;;;11.85;;
27889;SDS011;15238;49.082;9.102;2024-03-02T04:53:54;22.65;;;12.90;;
27889;SDS011;15238;49.082;9.102;2024-03-02T04:55:54;20.70;;;12.85;;
27889;SDS011;15238;49.082;9.102;2024-03-02T04:57:55;21.02;;;13.07;;
27889;SDS011;15238;49.082;9.102;2024-03-02T04:59:56;22.70;;;12.95;;
27889;SDS011;15238;49.082;9.102;2024-03-02T05:01:56;22.70;;;13.63;;
27889;SDS011;15238;49.082;9.102;2024-03-02T05:03:57;20.83;;;12.50;;
27889;SDS011;15238;49.082;9.102;2024-03-02T05:05:58;21.75;;;12.70;;
27889;SDS011;15238;49.082;9.102;2024-03-02T05:07:58;23.60;;;13.20;;
27889;SDS011;15238;49.082;9.102;2024-03-02T05:09:59;20.17;;;12.43;;
27889;SDS011;15238;49.082;9.102;2024-03-02T05:11:59;18.52;;;12.13;;
27889;SDS011;15238;49.082;9.102;2024-03-02T05:14:26;20.33;;;12.30;;
27889;SDS011;15238;49.082;9.102;2024-03-02T05:16:27;20.83;;;12.52;;
27889;SDS011;15238;49.082;9.102;2024-03-02T05:18:27;20.58;;;12.80;;
27889;SDS011;15238;49.082;9.102;2024-03-02T05:20:28;21.90;;;12.77;;
27889;SDS011;15238;49.082;9.102;2024-03-02T05:22:28;22.63;;;13.50;;
27889;SDS011;15238;49.082;9.102;2024-03-02T05:24:29;23.20;;;13.52;;
27889;SDS011;15238;49.082;9.102;2024-03-02T05:26:29;21.45;;;12.80;;
27889;SDS011;15238;49.082;9.102;2024-03-02T05:28:29;21.15;;;13.02;;
27889;SDS011;15238;49.082;9.102;2024-03-02T05:30:30;20.75;;;13.43;;
27889;SDS011;15238;49.082;9.102;2024-03-02T05:32:30;22.83;;;13.57;;
27889;SDS011;15238;49.082;9.102;2024-03-02T05:34:31;21.33;;;13.45;;
27889;SDS011;15238;49.082;9.102;2024-03-02T05:36:32;23.45;;;12.68;;
27889;SDS011;15238;49.082;9.102;2024-03-02T05:38:36;22.40;;;12.90;;
27889;SDS011;15238;49.082;9.102;2024-03-02T05:40:36;19.80;;;13.00;;
27889;SDS011;15238;49.082;9.102;2024-03-02T05:42:37;35.92;;;17.35;;
27889;SDS011;15238;49.082;9.102;2024-03-02T05:44:38;23.05;;;14.20;;
27889;SDS011;15238;49.082;9.102;2024-03-02T05:46:38;21.98;;;13.30;;
27889;SDS011;15238;49.082;9.102;2024-03-02T05:48:39;22.98;;;13.35;;
27889;SDS011;15238;49.082;9.102;2024-03-02T05:50:39;19.67;;;13.05;;
27889;SDS011;15238;49.082;9.102;2024-03-02T05:52:40;22.80;;;13.30;;
27889;SDS011;15238;49.082;9.102;2024-03-02T05:54:40;22.05;;;13.40;;
27889;SDS011;15238;49.082;9.102;2024-03-02T05:56:40;19.60;;;12.38;;
27889;SDS011;15238;49.082;9.102;2024-03-02T05:58:41;23.45;;;12.50;;
27889;SDS011;15238;49.082;9.102;2024-03-02T06:01:00;21.15;;;13.02;;
27889;SDS011;15238;49.082;9.102;2024-03-02T06:03:00;22.17;;;12.02;;
27889;SDS011;15238;49.082;9.102;2024-03-02T06:05:01;20.58;;;12.80;;
27889;SDS011;15238;49.082;9.102;2024-03-02T06:07:01;18.75;;;12.48;;
27889;SDS011;15238;49.082;9.102;2024-03-02T06:09:03;21.67;;;12.43;;
27889;SDS011;15238;49.082;9.102;2024-03-02T06:11:13;19.52;;;12.23;;
27889;SDS011;15238;49.082;9.102;2024-03-02T06:13:13;20.88;;;12.43;;
27889;SDS011;15238;49.082;9.102;2024-03-02T06:15:14;22.58;;;13.40;;
27889;SDS011;15238;49.082;9.102;2024-03-02T06:17:14;23.15;;;13.50;;
27889;SDS011;15238;49.082;9.102;2024-03-02T06:19:15;23.33;;;13.40;;
27889;SDS011;15238;49.082;9.102;2024-03-02T06:21:15;21.60;;;13.50;;
27889;SDS011;15238;49.082;9.102;2024-03-02T06:23:16;21.58;;;13.57;;
27889;SDS011;15238;49.082;9.102;2024-03-02T06:25:16;20.00;;;12.27;;
27889;SDS011;15238;49.082;9.102;2024-03-02T06:27:17;21.73;;;12.27;;
27889;SDS011;15238;49.082;9.102;2024-03-02T06:29:17;22.42;;;13.63;;
27889;SDS011;15238;49.082;9.102;2024-03-02T06:31:18;19.75;;;12.70;;
27889;SDS011;15238;49.082;9.102;2024-03-02T06:33:18;22.40;;;12.77;;
27889;SDS011;15238;49.082;9.102;2024-03-02T06:35:18;25.85;;;14.18;;
27889;SDS011;15238;49.082;9.102;2024-03-02T06:37:19;20.52;;;12.90;;
27889;SDS011;15238;49.082;9.102;2024-03-02T06:39:20;21.98;;;12.75;;
27889;SDS011;15238;49.082;9.102;2024-03-02T06:41:20;19.85;;;12.60;;
27889;SDS011;15238;49.082;9.102;2024-03-02T06:43:21;20.90;;;12.82;;
27889;SDS011;15238;49.082;9.102;2024-03-02T06:45:25;20.23;;;13.00;;
27889;SDS011;15238;49.082;9.102;2024-03-02T06:47:25;20.90;;;12.43;;
27889;SDS011;15238;49.082;9.102;2024-03-02T06:49:26;20.48;;;12.93;;
27889;SDS011;15238;49.082;9.102;2024-03-02T06:51:26;19.52;;;12.50;;
27889;SDS011;15238;49.082;9.102;2024-03-02T06:53:26;21.90;;;12.85;;
27889;SDS011;15238;49.082;9.102;2024-03-02T06:55:28;21.50;;;12.02;;
27889;SDS011;15238;49.082;9.102;2024-03-02T06:57:28;21.85;;;13.20;;
27889;SDS011;15238;49.082;9.102;2024-03-02T06:59:29;18.35;;;12.40;;
27889;SDS011;15238;49.082;9.102;2024-03-02T07:01:30;18.73;;;12.15;;
27889;SDS011;15238;49.082;9.102;2024-03-02T07:03:30;19.23;;;12.00;;
27889;SDS011;15238;49.082;9.102;2024-03-02T07:05:31;20.33;;;11.70;;
27889;SDS011;15238;49.082;9.102;2024-03-02T07:07:31;19.40;;;11.07;;
27889;SDS011;15238;49.082;9.102;2024-03-02T07:09:32;18.17;;;11.45;;
27889;SDS011;15238;49.082;9.102;2024-03-02T07:11:32;19.48;;;11.77;;
27889;SDS011;15238;49.082;9.102;2024-03-02T07:13:32;17.45;;;11.15;;
27889;SDS011;15238;49.082;9.102;2024-03-02T07:15:33;19.58;;;11.80;;
27889;SDS011;15238;49.082;9.102;2024-03-02T07:17:36;17.20;;;10.80;;
27889;SDS011;15238;49.082;9.102;2024-03-02T07:19:37;17.60;;;10.98;;
27889;SDS011;15238;49.082;9.102;2024-03-02T07:21:39;17.48;;;11.18;;
27889;SDS011;15238;49.082;9.102;2024-03-02T07:23:40;17.13;;;11.25;;
27889;SDS011;15238;49.082;9.102;2024-03-02T07:25:40;19.55;;;11.05;;
27889;SDS011;15238;49.082;9.102;2024-03-02T07:27:41;19.20;;;11.38;;
27889;SDS011;15238;49.082;9.102;2024-03-02T07:29:42;18.08;;;11.00;;
27889;SDS011;15238;49.082;9.102;2024-03-02T07:31:43;18.17;;;10.27;;
27889;SDS011;15238;49.082;9.102;2024-03-02T07:33:44;18.50;;;11.38;;
27889;SDS011;15238;49.082;9.102;2024-03-02T07:35:46;17.85;;;10.43;;
27889;SDS011;15238;49.082;9.102;2024-03-02T07:37:46;16.20;;;10.23;;
27889;SDS011;15238;49.082;9.102;2024-03-02T07:39:47;17.50;;;11.35;;
27889;SDS011;15238;49.082;9.102;2024-03-02T07:41:47;18.23;;;11.15;;
27889;SDS011;15238;49.082;9.102;2024-03-02T07:43:48;21.42;;;10.95;;
27889;SDS011;15238;49.082;9.102;2024-03-02T07:45:49;17.23;;;11.23;;
27889;SDS011;15238;49.082;9.102;2024-03-02T07:47:50;19.38;;;11.30;;
27889;SDS011;15238;49.082;9.102;2024-03-02T07:49:50;15.80;;;10.88;;
27889;SDS011;15238;49.082;9.102;2024-03-02T07:51:51;18.77;;;10.73;;
27889;SDS011;15238;49.082;9.102;2024-03-02T07:53:51;15.32;;;10.20;;
27889;SDS011;15238;49.082;9.102;2024-03-02T07:55:52;16.10;;;10.85;;
27889;SDS011;15238;49.082;9.102;2024-03-02T07:57:52;16.17;;;10.07;;
27889;SDS011;15238;49.082;9.102;2024-03-02T07:59:53;15.30;;;10.10;;
27889;SDS011;15238;49.082;9.102;2024-03-02T08:01:53;20.00;;;11.13;;
27889;SDS011;15238;49.082;9.102;2024-03-02T08:03:55;17.42;;;10.40;;
27889;SDS011;15238;49.082;9.102;2024-03-02T08:05:58;15.95;;;10.70;;
27889;SDS011;15238;49.082;9.102;2024-03-02T08:07:59;15.38;;;9.93;;
27889;SDS011;15238;49.082;9.102;2024-03-02T08:10:00;16.67;;;9.77;;
27889;SDS011;15238;49.082;9.102;2024-03-02T08:12:00;18.42;;;10.52;;
27889;SDS011;15238;49.082;9.102;2024-03-02T08:14:01;16.60;;;10.20;;
27889;SDS011;15238;49.082;9.102;2024-03-02T08:16:01;16.15;;;9.95;;
27889;SDS011;15238;49.082;9.102;2024-03-02T08:18:03;15.35;;;9.48;;
27889;SDS011;15238;49.082;9.102;2024-03-02T08:20:04;15.23;;;10.00;;
27889;SDS011;15238;49.082;9.102;2024-03-02T08:22:05;14.23;;;8.57;;
27889;SDS011;15238;49.082;9.102;2024-03-02T08:24:06;14.48;;;9.48;;
27889;SDS011;15238;49.082;9.102;2024-03-02T08:26:07;14.13;;;9.10;;
27889;SDS011;15238;49.082;9.102;2024-03-02T08:28:11;13.90;;;8.77;;
27889;SDS011;15238;49.082;9.102;2024-03-02T08:30:12;14.20;;;8.95;;
27889;SDS011;15238;49.082;9.102;2024-03-02T08:32:12;14.73;;;9.13;;
27889;SDS011;15238;49.082;9.102;2024-03-02T08:34:13;12.63;;;8.38;;
27889;SDS011;15238;49.082;9.102;2024-03-02T08:36:13;14.15;;;8.48;;
27889;SDS011;15238;49.082;9.102;2024-03-02T08:38:14;15.10;;;9.68;;
27889;SDS011;15238;49.082;9.102;2024-03-02T08:40:15;12.60;;;9.20;;
27889;SDS011;15238;49.082;9.102;2024-03-02T08:42:15;11.90;;;8.40;;
27889;SDS011;15238;49.082;9.102;2024-03-02T08:44:17;13.55;;;9.13;;
27889;SDS011;15238;49.082;9.102;2024-03-02T08:46:18;15.15;;;9.18;;
27889;SDS011;15238;49.082;9.102;2024-03-02T08:48:18;12.57;;;7.30;;
27889;SDS011;15238;49.082;9.102;2024-03-02T08:50:20;10.45;;;8.00;;
27889;SDS011;15238;49.082;9.102;2024-03-02T08:52:21;10.70;;;7.85;;
27889;SDS011;15238;49.082;9.102;2024-03-02T08:54:21;11.30;;;7.43;;
27889;SDS011;15238;49.082;9.102;2024-03-02T08:56:22;10.85;;;7.57;;
27889;SDS011;15238;49.082;9.102;2024-03-02T08:58:23;17.10;;;10.05;;
27889;SDS011;15238;49.082;9.102;2024-03-02T09:00:24;11.88;;;7.55;;
27889;SDS011;15238;49.082;9.102;2024-03-02T09:02:25;11.65;;;7.18;;
27889;SDS011;15238;49.082;9.102;2024-03-02T09:04:25;17.52;;;10.52;;
27889;SDS011;15238;49.082;9.102;2024-03-02T09:06:26;12.25;;;6.57;;
27889;SDS011;15238;49.082;9.102;2024-03-02T09:08:27;10.75;;;6.90;;
27889;SDS011;15238;49.082;9.102;2024-03-02T09:10:27;8.18;;;6.10;;
27889;SDS011;15238;49.082;9.102;2024-03-02T09:12:28;7.70;;;5.63;;
27889;SDS011;15238;49.082;9.102;2024-03-02T09:14:28;11.20;;;6.97;;
27889;SDS011;15238;49.082;9.102;2024-03-02T09:16:29;13.48;;;8.20;;
27889;SDS011;15238;49.082;9.102;2024-03-02T09:18:31;9.55;;;6.22;;
27889;SDS011;15238;49.082;9.102;2024-03-02T09:20:31;9.05;;;5.90;;
27889;SDS011;15238;49.082;9.102;2024-03-02T09:22:32;8.48;;;6.05;;
27889;SDS011;15238;49.082;9.102;2024-03-02T09:24:32;9.00;;;6.05;;
27889;SDS011;15238;49.082;9.102;2024-03-02T09:26:35;10.65;;;6.32;;
27889;SDS011;15238;49.082;9.102;2024-03-02T09:28:36;8.90;;;6.40;;
27889;SDS011;15238;49.082;9.102;2024-03-02T09:30:36;8.30;;;6.18;;
27889;SDS011;15238;49.082;9.102;2024-03-02T09:32:37;7.95;;;5.80;;
27889;SDS011;15238;49.082;9.102;2024-03-02T09:34:37;9.55;;;5.68;;
27889;SDS011;15238;49.082;9.102;2024-03-02T09:36:38;7.30;;;5.80;;
27889;SDS011;15238;49.082;9.102;2024-03-02T09:38:38;10.93;;;6.07;;
27889;SDS011;15238;49.082;9.102;2024-03-02T09:40:39;8.23;;;5.75;;
27889;SDS011;15238;49.082;9.102;2024-03-02T09:42:41;8.57;;;5.30;;
27889;SDS011;15238;49.082;9.102;2024-03-02T09:44:42;7.18;;;4.78;;
27889;SDS011;15238;49.082;9.102;2024-03-02T09:46:43;6.85;;;5.15;;
27889;SDS011;15238;49.082;9.102;2024-03-02T09:48:44;7.35;;;5.15;;
27889;SDS011;15238;49.082;9.102;2024-03-02T09:50:45;6.82;;;5.10;;
27889;SDS011;15238;49.082;9.102;2024-03-02T09:52:49;8.98;;;4.93;;
27889;SDS011;15238;49.082;9.102;2024-03-02T09:54:50;6.90;;;4.70;;
27889;SDS011;15238;49.082;9.102;2024-03-02T09:56:51;6.95;;;4.78;;
27889;SDS011;15238;49.082;9.102;2024-03-02T09:58:51;6.63;;;4.93;;
27889;SDS011;15238;49.082;9.102;2024-03-02T10:00:52;8.50;;;4.95;;
27889;SDS011;15238;49.082;9.102;2024-03-02T10:02:53;6.05;;;4.60;;
27889;SDS011;15238;49.082;9.102;2024-03-02T10:04:54;7.32;;;4.70;;
27889;SDS011;15238;49.082;9.102;2024-03-02T10:07:11;8.93;;;4.95;;
27889;SDS011;15238;49.082;9.102;2024-03-02T10:09:26;6.97;;;4.88;;
27889;SDS011;15238;49.082;9.102;2024-03-02T10:11:32;7.82;;;4.88;;
27889;SDS011;15238;49.082;9.102;2024-03-02T10:13:35;5.57;;;4.35;;
27889;SDS011;15238;49.082;9.102;2024-03-02T10:15:41;8.00;;;4.63;;
27889;SDS011;15238;49.082;9.102;2024-03-02T10:17:42;9.40;;;6.45;;
27889;SDS011;15238;49.082;9.102;2024-03-02T10:19:42;8.38;;;5.30;;
27889;SDS011;15238;49.082;9.102;2024-03-02T10:21:47;8.40;;;5.53;;
27889;SDS011;15238;49.082;9.102;2024-03-02T10:23:51;9.13;;;5.15;;
27889;SDS011;15238;49.082;9.102;2024-03-02T10:25:52;7.53;;;4.75;;
27889;SDS011;15238;49.082;9.102;2024-03-02T10:27:56;8.75;;;5.07;;
27889;SDS011;15238;49.082;9.102;2024-03-02T10:30:00;5.70;;;4.75;;
27889;SDS011;15238;49.082;9.102;2024-03-02T10:32:03;6.47;;;4.20;;
27889;SDS011;15238;49.082;9.102;2024-03-02T10:34:04;8.75;;;4.70;;
27889;SDS011;15238;49.082;9.102;2024-03-02T10:36:05;8.18;;;4.97;;
27889;SDS011;15238;49.082;9.102;2024-03-02T10:38:05;9.15;;;4.70;;
27889;SDS011;15238;49.082;9.102;2024-03-02T10:40:06;8.90;;;5.22;;
27889;SDS011;15238;49.082;9.102;2024-03-02T10:42:08;7.82;;;4.88;;
27889;SDS011;15238;49.082;9.102;2024-03-02T10:44:09;4.75;;;3.83;;
27889;SDS011;15238;49.082;9.102;2024-03-02T10:46:10;5.50;;;3.72;;
27889;SDS011;15238;49.082;9.102;2024-03-02T10:48:12;7.22;;;4.10;;
27889;SDS011;15238;49.082;9.102;2024-03-02T10:50:12;7.40;;;3.33;;
27889;SDS011;15238;49.082;9.102;2024-03-02T10:52:13;4.35;;;3.45;;
27889;SDS011;15238;49.082;9.102;2024-03-02T10:54:13;5.05;;;3.42;;
27889;SDS011;15238;49.082;9.102;2024-03-02T10:56:16;4.90;;;3.00;;
27889;SDS011;15238;49.082;9.102;2024-03-02T10:58:27;5.28;;;3.67;;
27889;SDS011;15238;49.082;9.102;2024-03-02T11:00:33;7.05;;;3.00;;
27889;SDS011;15238;49.082;9.102;2024-03-02T11:02:34;4.43;;;3.00;;
27889;SDS011;15238;49.082;9.102;2024-03-02T11:04:38;8.00;;;2.70;;
27889;SDS011;15238;49.082;9.102;2024-03-02T11:06:41;5.15;;;3.50;;
27889;SDS011;15238;49.082;9.102;2024-03-02T11:08:51;4.15;;;2.97;;
27889;SDS011;15238;49.082;9.102;2024-03-02T11:10:58;4.18;;;2.65;;
27889;SDS011;15238;49.082;9.102;2024-03-02T11:13:09;5.63;;;2.90;;
27889;SDS011;15238;49.082;9.102;2024-03-02T11:15:13;3.50;;;2.42;;
27889;SDS011;15238;49.082;9.102;2024-03-02T11:17:19;3.17;;;2.38;;
27889;SDS011;15238;49.082;9.102;2024-03-02T11:19:20;3.80;;;2.72;;
27889;SDS011;15238;49.082;9.102;2024-03-02T11:21:22;3.85;;;2.45;;
27889;SDS011;15238;49.082;9.102;2024-03-02T11:23:31;4.28;;;2.55;;
27889;SDS011;15238;49.082;9.102;2024-03-02T11:25:33;2.90;;;2.10;;
27889;SDS011;15238;49.082;9.102;2024-03-02T11:29:46;4.55;;;2.03;;
27889;SDS011;15238;49.082;9.102;2024-03-02T11:31:59;2.97;;;2.08;;
27889;SDS011;15238;49.082;9.102;2024-03-02T11:34:16;2.65;;;1.83;;
27889;SDS011;15238;49.082;9.102;2024-03-02T11:36:29;2.85;;;2.13;;
27889;SDS011;15238;49.082;9.102;2024-03-02T11:38:30;4.47;;;2.15;;
27889;SDS011;15238;49.082;9.102;2024-03-02T11:40:32;3.38;;;1.80;;
27889;SDS011;15238;49.082;9.102;2024-03-02T11:42:33;5.28;;;1.65;;
27889;SDS011;15238;49.082;9.102;2024-03-02T11:44:33;3.03;;;2.05;;
27889;SDS011;15238;49.082;9.102;2024-03-02T11:46:34;4.47;;;2.22;;
27889;SDS011;15238;49.082;9.102;2024-03-02T11:48:36;3.60;;;2.35;;
27889;SDS011;15238;49.082;9.102;2024-03-02T11:50:42;2.92;;;1.80;;
27889;SDS011;15238;49.082;9.102;2024-03-02T11:52:47;5.50;;;1.83;;
27889;SDS011;15238;49.082;9.102;2024-03-02T11:54:48;2.72;;;1.52;;
27889;SDS011;15238;49.082;9.102;2024-03-02T11:56:48;3.90;;;1.50;;
27889;SDS011;15238;49.082;9.102;2024-03-02T11:58:49;2.05;;;1.40;;
27889;SDS011;15238;49.082;9.102;2024-03-02T12:00:53;2.78;;;1.70;;
27889;SDS011;15238;49.082;9.102;2024-03-02T12:03:02;3.08;;;2.30;;
27889;SDS011;15238;49.082;9.102;2024-03-02T12:05:08;2.05;;;1.40;;